Time;durP1;ratioP1;P1;durP2;ratioP2;P2;SDS_P1;SDS_P2;PMS_P1;PMS_P2;Temp;Humidity;BMP_temperature;BMP_pressure;BME280_temperature;BME280_humidity;BME280_pressure;Samples;Min_cycle;Max_cycle;Signal;HPM_P1;HPM_P2
2022/07/06 07:32:52;;;;;;;8.65;5.50;;;;;;;30.79;35.67;99842.19;1684850;82;21163;-38
2022/07/06 07:35:19;;;;;;;16.17;6.40;;;;;;;30.78;37.05;99846.74;1706687;83;21412;-47
2022/07/06 07:37:47;;;;;;;8.48;5.65;;;;;;;30.87;37.64;99841.02;1702519;82;21093;-47
2022/07/06 07:40:14;;;;;;;16.65;5.72;;;;;;;30.94;36.78;99845.70;1713895;83;21348;-39
2022/07/06 07:42:40;;;;;;;9.15;5.03;;;;;;;30.92;36.60;99840.95;1664261;85;21074;-47
2022/07/06 07:45:09;;;;;;;9.50;5.28;;;;;;;30.91;37.15;99844.65;1690828;84;21045;-40
2022/07/06 07:47:35;;;;;;;15.18;5.62;;;;;;;30.95;34.84;99846.55;1663310;85;21061;-39
2022/07/06 07:50:03;;;;;;;13.90;5.47;;;;;;;31.02;35.46;99840.93;1663050;84;21029;-47
2022/07/06 07:52:30;;;;;;;10.58;5.55;;;;;;;31.05;34.85;99835.76;1657742;85;21044;-39
2022/07/06 07:54:56;;;;;;;18.10;5.53;;;;;;;31.04;34.44;99834.91;1657453;85;21051;-39
2022/07/06 07:57:23;;;;;;;9.30;4.60;;;;;;;31.08;35.11;99839.51;1658071;85;21103;-39
2022/07/06 07:59:50;;;;;;;15.30;5.47;;;;;;;31.12;33.84;99833.69;1658404;85;21863;-38
2022/07/06 08:02:17;;;;;;;8.50;5.20;;;;;;;31.17;34.08;99833.27;1674130;85;21066;-47
2022/07/06 08:04:44;;;;;;;8.83;5.12;;;;;;;31.25;34.29;99839.70;1686255;85;21632;-38
2022/07/06 08:07:10;;;;;;;19.42;6.17;;;;;;;31.33;34.99;99831.38;1686248;85;21410;-47
2022/07/06 08:09:39;;;;;;;9.80;5.20;;;;;;;31.40;32.74;99829.79;1686271;85;21038;-47
2022/07/06 08:12:07;;;;;;;11.30;5.75;;;;;;;31.47;33.62;99832.27;1686210;85;21061;-46
2022/07/06 08:14:34;;;;;;;10.32;5.92;;;;;;;31.50;33.77;99832.84;1685850;85;21022;-47
2022/07/06 08:17:01;;;;;;;8.75;5.62;;;;;;;31.50;33.85;99831.98;1674448;85;21069;-39
2022/07/06 08:19:30;;;;;;;18.45;6.33;;;;;;;31.52;32.64;99831.33;1672934;85;21100;-46
2022/07/06 08:21:57;;;;;;;9.33;6.35;;;;;;;31.52;33.48;99828.63;1657637;85;21648;-46
2022/07/06 08:24:25;;;;;;;12.13;6.00;;;;;;;31.56;32.97;99830.55;1659717;85;21299;-38
2022/07/06 08:26:51;;;;;;;16.80;5.92;;;;;;;31.58;32.28;99816.38;1673706;85;21603;-38
2022/07/06 08:29:18;;;;;;;14.03;5.65;;;;;;;31.60;33.14;99822.48;1657635;85;21067;-39
2022/07/06 08:31:45;;;;;;;18.15;6.35;;;;;;;31.63;33.26;99816.80;1675983;85;20994;-38
2022/07/06 08:34:12;;;;;;;18.85;6.03;;;;;;;31.74;32.66;99820.68;1658328;85;21124;-47
2022/07/06 08:36:39;;;;;;;10.30;6.08;;;;;;;31.85;32.55;99827.30;1659279;85;21003;-40
2022/07/06 08:39:07;;;;;;;9.90;5.22;;;;;;;31.98;32.86;99825.10;1664877;85;21109;-39
2022/07/06 08:41:35;;;;;;;9.90;5.12;;;;;;;32.09;32.49;99820.01;1661501;85;21003;-39
2022/07/06 08:44:03;;;;;;;21.80;5.60;;;;;;;32.18;31.49;99826.36;1654690;85;21054;-42
2022/07/06 08:46:29;;;;;;;10.53;5.92;;;;;;;32.21;30.88;99820.16;1679684;85;21098;-39
2022/07/06 08:48:57;;;;;;;11.73;5.40;;;;;;;32.27;30.96;99818.70;1653100;85;21071;-39
2022/07/06 08:51:25;;;;;;;8.45;5.60;;;;;;;32.29;31.43;99818.89;1663392;85;21019;-47
2022/07/06 08:53:52;;;;;;;6.70;5.35;;;;;;;32.36;30.85;99819.70;1662111;85;21043;-47
2022/07/06 08:56:19;;;;;;;7.25;5.72;;;;;;;32.37;31.36;99822.75;1659245;85;21056;-47
2022/07/06 08:58:46;;;;;;;12.28;5.35;;;;;;;32.38;31.02;99819.89;1658458;85;21637;-39
2022/07/06 09:01:13;;;;;;;11.03;5.78;;;;;;;32.41;30.27;99822.78;1661175;85;21061;-46
2022/07/06 09:03:44;;;;;;;12.05;5.60;;;;;;;32.45;29.93;99818.27;1675923;85;21584;-47
2022/07/06 09:06:11;;;;;;;6.80;5.28;;;;;;;32.57;30.25;99818.91;1677719;85;21473;-38
2022/07/06 09:08:37;;;;;;;15.68;6.15;;;;;;;32.64;30.51;99817.80;1664342;85;21068;-39
2022/07/06 09:11:05;;;;;;;11.38;5.50;;;;;;;32.67;30.34;99814.29;1653794;85;21024;-47
2022/07/06 09:13:31;;;;;;;9.30;5.55;;;;;;;32.79;30.30;99811.70;1674540;85;21993;-47
2022/07/06 09:16:10;;;;;;;15.95;5.75;;;;;;;32.94;29.81;99813.92;1658150;85;21059;-47
2022/07/06 09:18:38;;;;;;;9.28;5.55;;;;;;;33.05;29.28;99810.47;1658127;85;21079;-39
2022/07/06 09:21:06;;;;;;;6.95;5.40;;;;;;;33.08;28.49;99809.29;1658651;85;21016;-47
2022/07/06 09:23:33;;;;;;;10.38;5.37;;;;;;;33.00;29.26;99819.56;1658661;85;21053;-47
2022/07/06 09:26:03;;;;;;;6.97;5.53;;;;;;;32.95;29.68;99814.27;1638811;85;21114;-46
2022/07/06 09:28:46;;;;;;;10.98;5.47;;;;;;;32.94;29.86;99809.86;1658478;85;21103;-46
2022/07/06 09:31:13;;;;;;;6.97;5.35;;;;;;;32.93;29.45;99806.77;1658751;85;21036;-39
2022/07/06 09:33:43;;;;;;;13.00;5.47;;;;;;;32.98;29.82;99805.80;1658646;85;21083;-46
2022/07/06 09:36:09;;;;;;;13.32;5.17;;;;;;;33.12;29.75;99799.84;1600924;88;21117;-47
2022/07/06 09:38:37;;;;;;;7.37;4.67;;;;;;;33.13;29.17;99800.70;1620543;88;21137;-47
2022/07/06 09:41:04;;;;;;;6.85;4.75;;;;;;;33.01;27.54;99795.52;1620702;88;21065;-47
2022/07/06 09:43:33;;;;;;;8.00;5.03;;;;;;;32.92;27.36;99796.95;1598686;88;21106;-47
2022/07/06 09:45:59;;;;;;;6.80;4.08;;;;;;;32.92;28.42;99795.59;1599416;88;21090;-47
2022/07/06 09:48:27;;;;;;;5.58;4.40;;;;;;;32.99;26.09;99793.95;1620068;88;21139;-47
2022/07/06 09:50:57;;;;;;;5.53;4.15;;;;;;;33.09;24.82;99797.44;1620698;88;21078;-39
2022/07/06 09:53:26;;;;;;;7.83;4.45;;;;;;;33.18;24.67;99798.38;1620444;88;21094;-39
2022/07/06 09:55:58;;;;;;;6.58;4.08;;;;;;;33.25;24.51;99803.00;1620139;88;21063;-47
2022/07/06 09:58:24;;;;;;;8.03;4.20;;;;;;;33.32;25.37;99797.79;1620314;88;21137;-46
2022/07/06 10:00:52;;;;;;;14.15;4.75;;;;;;;33.34;25.80;99802.06;1620352;88;21030;-47
2022/07/06 10:03:19;;;;;;;5.00;3.60;;;;;;;33.38;25.26;99790.89;1619784;88;21137;-47
2022/07/06 10:05:47;;;;;;;6.58;3.30;;;;;;;33.43;22.68;99803.50;1619813;88;21038;-47
2022/07/06 10:08:14;;;;;;;10.00;4.25;;;;;;;33.40;23.34;99791.12;1619042;88;21078;-46
2022/07/06 10:10:42;;;;;;;8.95;4.62;;;;;;;33.42;24.41;99785.53;1619539;88;21019;-40
2022/07/06 10:13:09;;;;;;;9.18;4.37;;;;;;;33.34;23.94;99784.45;1660298;85;21088;-39
2022/07/06 10:15:39;;;;;;;7.72;4.20;;;;;;;33.31;24.23;99786.61;1686760;82;21019;-39
2022/07/06 10:18:09;;;;;;;7.12;3.98;;;;;;;33.33;24.25;99784.58;1690953;82;21072;-48
2022/07/06 10:20:38;;;;;;;9.28;4.80;;;;;;;33.35;24.60;99786.14;1698557;82;21052;-38
2022/07/06 10:23:08;;;;;;;6.90;4.17;;;;;;;33.41;24.75;99781.13;1687955;82;21138;-39
2022/07/06 10:25:36;;;;;;;14.63;4.83;;;;;;;33.39;24.75;99775.81;1689252;82;21071;-39
2022/07/06 10:28:13;;;;;;;5.87;4.22;;;;;;;33.38;25.03;99780.05;1672803;82;21136;-47
2022/07/06 10:30:32;;;;;;;7.45;4.00;;;;;;;33.46;25.28;99779.64;1697783;83;21068;-47
2022/07/06 10:33:00;;;;;;;11.28;4.17;;;;;;;33.58;24.37;99778.36;1690568;81;21094;-47
2022/07/06 10:35:26;;;;;;;10.25;4.25;;;;;;;33.67;24.92;99777.04;1695088;83;21016;-47
2022/07/06 10:38:07;;;;;;;4.65;3.85;;;;;;;33.83;24.69;99772.55;1682675;83;21093;-47
2022/07/06 10:43:22;;;;;;;4.40;3.37;;;;;;;33.98;22.95;99766.05;1688615;85;21077;-47
2022/07/06 10:45:51;;;;;;;7.08;3.47;;;;;;;34.02;23.16;99759.77;1689172;83;20982;-46
2022/07/06 10:48:20;;;;;;;9.75;4.12;;;;;;;34.09;22.97;99764.37;1670010;83;21667;-46
2022/07/06 10:50:54;;;;;;;7.50;4.00;;;;;;;34.19;22.69;99757.47;1660535;86;21083;-39
2022/07/06 10:53:25;;;;;;;6.37;3.87;;;;;;;34.18;22.48;99760.35;1660458;85;21625;-39
2022/07/06 10:55:53;;;;;;;8.45;4.30;;;;;;;34.07;23.10;99759.63;1660885;86;21078;-47
2022/07/06 10:58:45;;;;;;;7.12;3.45;;;;;;;34.02;23.40;99756.55;1678122;83;21096;-47
2022/07/06 11:01:12;;;;;;;4.78;3.12;;;;;;;34.10;23.33;99755.75;1677546;83;21105;-37
2022/07/06 11:03:46;;;;;;;6.17;3.10;;;;;;;34.28;22.26;99752.41;1687286;83;21021;-37
2022/07/06 11:06:23;;;;;;;7.25;3.25;;;;;;;34.44;22.06;99748.05;1696424;84;21356;-38
2022/07/06 11:09:04;;;;;;;12.47;3.40;;;;;;;34.62;22.45;99748.78;1691929;84;21125;-38
2022/07/06 11:11:36;;;;;;;7.55;3.45;;;;;;;34.73;22.09;99747.07;1688218;85;21521;-47
2022/07/06 11:14:14;;;;;;;4.50;2.80;;;;;;;34.93;21.63;99742.20;1687725;83;21878;-46
2022/07/06 11:16:54;;;;;;;4.17;3.42;;;;;;;35.01;20.32;99734.55;1688494;83;21010;-39
2022/07/06 11:19:24;;;;;;;7.97;2.85;;;;;;;35.16;20.62;99732.84;1688271;84;21073;-47
2022/07/06 11:22:10;;;;;;;5.22;3.05;;;;;;;35.27;20.57;99728.92;1688450;85;21053;-47
2022/07/06 11:24:39;;;;;;;7.00;3.60;;;;;;;35.33;21.39;99735.03;1689009;83;21045;-38
2022/07/06 11:27:08;;;;;;;6.78;3.42;;;;;;;35.33;20.56;99730.95;1688234;84;21596;-47
2022/07/06 11:29:38;;;;;;;3.90;2.87;;;;;;;35.20;19.80;99720.62;1689005;83;21097;-38
2022/07/06 11:32:04;;;;;;;6.03;3.20;;;;;;;35.03;20.78;99716.22;1688486;83;21414;-47
2022/07/06 11:34:33;;;;;;;7.95;3.30;;;;;;;34.93;20.73;99719.95;1688446;82;21537;-39
2022/07/06 11:37:04;;;;;;;6.85;3.30;;;;;;;34.85;20.87;99716.34;1688484;84;21034;-38
2022/07/06 11:39:36;;;;;;;5.22;3.40;;;;;;;34.74;21.61;99716.71;1687869;84;21501;-38
2022/07/06 11:42:06;;;;;;;5.78;3.15;;;;;;;34.70;22.12;99716.19;1688100;84;21834;-38
2022/07/06 11:44:34;;;;;;;10.28;3.70;;;;;;;34.66;21.37;99707.52;1689379;83;21526;-47
2022/07/06 11:47:03;;;;;;;6.92;3.65;;;;;;;34.61;22.15;99707.69;1687763;85;21002;-46
2022/07/06 11:49:31;;;;;;;9.43;3.50;;;;;;;34.58;21.86;99695.30;1680335;83;21037;-38
2022/07/06 11:51:57;;;;;;;5.85;3.40;;;;;;;34.56;21.55;99697.36;1661950;85;21009;-38
2022/07/06 11:54:24;;;;;;;10.80;3.42;;;;;;;34.52;21.83;99700.56;1685628;83;21406;-40
2022/07/06 11:57:01;;;;;;;7.60;3.08;;;;;;;34.56;21.83;99701.91;1696096;84;20988;-47
2022/07/06 11:59:33;;;;;;;3.45;3.15;;;;;;;34.61;21.47;99696.31;1690244;84;21588;-38
2022/07/06 12:02:05;;;;;;;8.00;3.35;;;;;;;34.63;21.17;99694.80;1688033;85;21046;-46
2022/07/06 12:04:35;;;;;;;4.50;3.40;;;;;;;34.62;21.83;99685.81;1687929;84;21081;-38
2022/07/06 12:07:05;;;;;;;5.42;3.17;;;;;;;34.60;21.73;99687.83;1688030;85;21045;-46
2022/07/06 12:09:33;;;;;;;6.58;3.52;;;;;;;34.50;21.70;99682.22;1687795;85;21895;-47
